To NAV CANADA Home Page Login to a new session Search on AWWS site Feedback and Comments Disclaimer Vers la page française équivalente Tips FAQ What's new on the site To the Forecasts and Observations / NOTAM section To "File a Flight Plan" website Publications and other links Update of the User's profile FIC Telephone Numbers My Weather Data Folder Route Weather Data Regional Weather Data Local Weather Data To the Forecasts and Observations / NOTAM section
Request Generated 12/10/2016 at 16:31:50 UTC . Weather information available at that time is displayed.

METAR/TAF

MONTREAL/PIERRE-ELLIOTT-TRUDEAU INTL/QC    

METAR CYUL 101600Z 28006KT 240V310 15SM VCSH FEW040 BKN050 OVC200
M05/M16 A3033 RMK CF2SC5CI1 SHSN NW SLP275=
METAR CYUL 101500Z 27008KT 15SM FEW032 FEW052 SCT160 BKN200 M06/M15
A3035 RMK CF1SC1AC2CI4 CF TR SLP282=
METAR CYUL 101400Z 27007KT 15SM FEW034 FEW050 BKN240 M07/M14 A3034
RMK SC1SC1CI6 SC TR SLP278=

TAF CYUL 101438Z 1015/1112 27007KT P6SM FEW040 BKN240
FM101600 24008KT P6SM BKN040 OVC120
FM110200 24005KT P6SM FEW040 BKN100
FM110800 17003KT P6SM FEW080
RMK NXT FCST BY 101800Z=
Your time UTC time
Weather data provided by Environment Canada and NAV CANADA